sensor_id;sensor_type;location;lat;lon;timestamp;P1;durP1;ratioP1;P2;durP2;ratioP2
69937;SDS011;57248;47.320;15.998;2023-06-04T00:00:04;9.98;;;5.38;;
69937;SDS011;57248;47.320;15.998;2023-06-04T00:02:37;9.98;;;5.70;;
69937;SDS011;57248;47.320;15.998;2023-06-04T00:05:09;10.23;;;6.20;;
69937;SDS011;57248;47.320;15.998;2023-06-04T00:07:41;13.20;;;6.45;;
69937;SDS011;57248;47.320;15.998;2023-06-04T00:10:07;9.82;;;5.78;;
69937;SDS011;57248;47.320;15.998;2023-06-04T00:12:39;9.90;;;5.57;;
69937;SDS011;57248;47.320;15.998;2023-06-04T00:15:12;10.60;;;5.35;;
69937;SDS011;57248;47.320;15.998;2023-06-04T00:17:45;9.88;;;5.40;;
69937;SDS011;57248;47.320;15.998;2023-06-04T00:20:24;10.18;;;5.63;;
69937;SDS011;57248;47.320;15.998;2023-06-04T00:22:56;11.00;;;5.63;;
69937;SDS011;57248;47.320;15.998;2023-06-04T00:25:29;10.83;;;5.70;;
69937;SDS011;57248;47.320;15.998;2023-06-04T00:28:01;9.18;;;5.60;;
69937;SDS011;57248;47.320;15.998;2023-06-04T00:30:33;12.00;;;5.78;;
69937;SDS011;57248;47.320;15.998;2023-06-04T00:33:05;11.90;;;5.95;;
69937;SDS011;57248;47.320;15.998;2023-06-04T00:35:37;10.45;;;5.97;;
69937;SDS011;57248;47.320;15.998;2023-06-04T00:38:09;9.53;;;5.67;;
69937;SDS011;57248;47.320;15.998;2023-06-04T00:40:41;11.00;;;5.43;;
69937;SDS011;57248;47.320;15.998;2023-06-04T00:43:06;10.70;;;5.90;;
69937;SDS011;57248;47.320;15.998;2023-06-04T00:45:40;10.40;;;5.47;;
69937;SDS011;57248;47.320;15.998;2023-06-04T00:48:07;9.90;;;5.70;;
69937;SDS011;57248;47.320;15.998;2023-06-04T00:50:40;11.63;;;5.65;;
69937;SDS011;57248;47.320;15.998;2023-06-04T00:53:12;9.02;;;5.47;;
69937;SDS011;57248;47.320;15.998;2023-06-04T00:55:44;11.63;;;6.17;;
69937;SDS011;57248;47.320;15.998;2023-06-04T00:58:16;9.70;;;5.45;;
69937;SDS011;57248;47.320;15.998;2023-06-04T01:00:49;10.30;;;5.45;;
69937;SDS011;57248;47.320;15.998;2023-06-04T01:03:25;9.05;;;5.38;;
69937;SDS011;57248;47.320;15.998;2023-06-04T01:06:10;8.98;;;5.25;;
69937;SDS011;57248;47.320;15.998;2023-06-04T01:08:52;9.33;;;4.87;;
69937;SDS011;57248;47.320;15.998;2023-06-04T01:11:34;8.60;;;5.28;;
69937;SDS011;57248;47.320;15.998;2023-06-04T01:14:07;10.18;;;5.68;;
69937;SDS011;57248;47.320;15.998;2023-06-04T01:16:46;9.25;;;5.28;;
69937;SDS011;57248;47.320;15.998;2023-06-04T01:25:33;10.52;;;6.20;;
69937;SDS011;57248;47.320;15.998;2023-06-04T01:28:11;11.60;;;5.90;;
69937;SDS011;57248;47.320;15.998;2023-06-04T01:30:45;9.55;;;5.70;;
69937;SDS011;57248;47.320;15.998;2023-06-04T01:33:19;9.15;;;5.40;;
69937;SDS011;57248;47.320;15.998;2023-06-04T01:35:52;10.03;;;5.23;;
69937;SDS011;57248;47.320;15.998;2023-06-04T01:38:24;9.63;;;5.15;;
69937;SDS011;57248;47.320;15.998;2023-06-04T01:40:56;10.35;;;5.18;;
69937;SDS011;57248;47.320;15.998;2023-06-04T01:43:32;9.90;;;5.25;;
69937;SDS011;57248;47.320;15.998;2023-06-04T01:46:06;9.60;;;5.30;;
69937;SDS011;57248;47.320;15.998;2023-06-04T01:48:38;10.37;;;5.33;;
69937;SDS011;57248;47.320;15.998;2023-06-04T01:51:11;9.60;;;5.20;;
69937;SDS011;57248;47.320;15.998;2023-06-04T01:53:43;8.85;;;5.10;;
69937;SDS011;57248;47.320;15.998;2023-06-04T01:56:15;9.55;;;5.15;;
69937;SDS011;57248;47.320;15.998;2023-06-04T01:58:47;8.55;;;4.93;;
69937;SDS011;57248;47.320;15.998;2023-06-04T02:01:20;9.00;;;5.33;;
69937;SDS011;57248;47.320;15.998;2023-06-04T02:03:52;9.98;;;4.85;;
69937;SDS011;57248;47.320;15.998;2023-06-04T02:06:24;11.25;;;5.13;;
69937;SDS011;57248;47.320;15.998;2023-06-04T02:09:01;10.32;;;5.55;;
69937;SDS011;57248;47.320;15.998;2023-06-04T02:11:35;9.98;;;5.57;;
69937;SDS011;57248;47.320;15.998;2023-06-04T02:14:07;8.90;;;4.87;;
69937;SDS011;57248;47.320;15.998;2023-06-04T02:16:39;9.93;;;5.15;;
69937;SDS011;57248;47.320;15.998;2023-06-04T02:19:29;9.82;;;5.53;;
69937;SDS011;57248;47.320;15.998;2023-06-04T02:22:01;10.40;;;5.47;;
69937;SDS011;57248;47.320;15.998;2023-06-04T02:24:33;9.10;;;5.43;;
69937;SDS011;57248;47.320;15.998;2023-06-04T02:27:05;10.27;;;6.57;;
69937;SDS011;57248;47.320;15.998;2023-06-04T02:29:39;9.18;;;5.47;;
69937;SDS011;57248;47.320;15.998;2023-06-04T02:32:05;10.27;;;5.47;;
69937;SDS011;57248;47.320;15.998;2023-06-04T02:34:37;10.15;;;5.95;;
69937;SDS011;57248;47.320;15.998;2023-06-04T02:37:09;11.90;;;5.68;;
69937;SDS011;57248;47.320;15.998;2023-06-04T02:39:41;10.77;;;5.10;;
69937;SDS011;57248;47.320;15.998;2023-06-04T02:42:13;10.63;;;5.10;;
69937;SDS011;57248;47.320;15.998;2023-06-04T02:44:45;10.00;;;5.00;;
69937;SDS011;57248;47.320;15.998;2023-06-04T02:47:17;10.88;;;5.22;;
69937;SDS011;57248;47.320;15.998;2023-06-04T02:49:44;9.45;;;5.05;;
69937;SDS011;57248;47.320;15.998;2023-06-04T02:52:17;10.13;;;5.37;;
69937;SDS011;57248;47.320;15.998;2023-06-04T02:54:49;9.18;;;5.13;;
69937;SDS011;57248;47.320;15.998;2023-06-04T02:57:22;9.80;;;5.38;;
69937;SDS011;57248;47.320;15.998;2023-06-04T02:59:54;11.45;;;5.60;;
69937;SDS011;57248;47.320;15.998;2023-06-04T03:02:27;10.75;;;5.57;;
69937;SDS011;57248;47.320;15.998;2023-06-04T03:04:59;9.77;;;5.63;;
69937;SDS011;57248;47.320;15.998;2023-06-04T03:07:34;10.18;;;5.40;;
69937;SDS011;57248;47.320;15.998;2023-06-04T03:10:07;11.85;;;5.30;;
69937;SDS011;57248;47.320;15.998;2023-06-04T03:12:39;10.90;;;5.55;;
69937;SDS011;57248;47.320;15.998;2023-06-04T03:15:11;10.63;;;5.32;;
69937;SDS011;57248;47.320;15.998;2023-06-04T03:17:43;9.77;;;5.57;;
69937;SDS011;57248;47.320;15.998;2023-06-04T03:20:22;11.90;;;5.95;;
69937;SDS011;57248;47.320;15.998;2023-06-04T03:22:55;11.25;;;5.88;;
69937;SDS011;57248;47.320;15.998;2023-06-04T03:25:27;11.43;;;5.65;;
69937;SDS011;57248;47.320;15.998;2023-06-04T03:27:59;10.25;;;5.75;;
69937;SDS011;57248;47.320;15.998;2023-06-04T03:30:32;10.30;;;5.67;;
69937;SDS011;57248;47.320;15.998;2023-06-04T03:33:04;10.77;;;5.90;;
69937;SDS011;57248;47.320;15.998;2023-06-04T03:35:30;9.83;;;5.83;;
69937;SDS011;57248;47.320;15.998;2023-06-04T03:38:02;10.48;;;5.82;;
69937;SDS011;57248;47.320;15.998;2023-06-04T03:40:35;8.93;;;4.88;;
69937;SDS011;57248;47.320;15.998;2023-06-04T03:43:09;12.23;;;5.75;;
69937;SDS011;57248;47.320;15.998;2023-06-04T03:45:42;11.32;;;5.80;;
69937;SDS011;57248;47.320;15.998;2023-06-04T03:48:15;9.83;;;5.73;;
69937;SDS011;57248;47.320;15.998;2023-06-04T03:50:47;10.63;;;5.45;;
69937;SDS011;57248;47.320;15.998;2023-06-04T03:53:20;10.88;;;6.25;;
69937;SDS011;57248;47.320;15.998;2023-06-04T03:55:52;10.52;;;5.78;;
69937;SDS011;57248;47.320;15.998;2023-06-04T03:58:24;10.77;;;6.00;;
69937;SDS011;57248;47.320;15.998;2023-06-04T04:00:57;11.60;;;5.90;;
69937;SDS011;57248;47.320;15.998;2023-06-04T04:03:29;10.63;;;6.30;;
69937;SDS011;57248;47.320;15.998;2023-06-04T04:06:03;9.48;;;5.63;;
69937;SDS011;57248;47.320;15.998;2023-06-04T04:08:35;9.48;;;5.53;;
69937;SDS011;57248;47.320;15.998;2023-06-04T04:11:14;9.48;;;5.75;;
69937;SDS011;57248;47.320;15.998;2023-06-04T04:13:49;9.97;;;5.40;;
69937;SDS011;57248;47.320;15.998;2023-06-04T04:16:16;10.45;;;5.65;;
69937;SDS011;57248;47.320;15.998;2023-06-04T04:18:56;10.80;;;6.35;;
69937;SDS011;57248;47.320;15.998;2023-06-04T04:21:28;11.60;;;6.22;;
69937;SDS011;57248;47.320;15.998;2023-06-04T04:24:01;12.52;;;6.03;;
69937;SDS011;57248;47.320;15.998;2023-06-04T04:26:32;11.67;;;6.27;;
69937;SDS011;57248;47.320;15.998;2023-06-04T04:29:05;10.80;;;5.38;;
69937;SDS011;57248;47.320;15.998;2023-06-04T04:31:41;11.35;;;6.32;;
69937;SDS011;57248;47.320;15.998;2023-06-04T04:34:13;11.95;;;6.45;;
69937;SDS011;57248;47.320;15.998;2023-06-04T04:36:47;11.90;;;6.88;;
69937;SDS011;57248;47.320;15.998;2023-06-04T04:39:25;11.37;;;6.77;;
69937;SDS011;57248;47.320;15.998;2023-06-04T04:41:57;10.18;;;5.93;;
69937;SDS011;57248;47.320;15.998;2023-06-04T04:44:29;9.50;;;5.50;;
69937;SDS011;57248;47.320;15.998;2023-06-04T04:47:01;10.85;;;5.60;;
69937;SDS011;57248;47.320;15.998;2023-06-04T04:49:33;8.98;;;5.45;;
69937;SDS011;57248;47.320;15.998;2023-06-04T04:52:05;12.43;;;6.27;;
69937;SDS011;57248;47.320;15.998;2023-06-04T04:54:40;10.93;;;6.18;;
69937;SDS011;57248;47.320;15.998;2023-06-04T04:57:12;12.52;;;6.90;;
69937;SDS011;57248;47.320;15.998;2023-06-04T04:59:48;11.95;;;6.90;;
69937;SDS011;57248;47.320;15.998;2023-06-04T05:02:21;11.35;;;6.32;;
69937;SDS011;57248;47.320;15.998;2023-06-04T05:04:54;13.87;;;6.13;;
69937;SDS011;57248;47.320;15.998;2023-06-04T05:07:26;13.43;;;6.40;;
69937;SDS011;57248;47.320;15.998;2023-06-04T05:09:59;13.63;;;6.75;;
69937;SDS011;57248;47.320;15.998;2023-06-04T05:12:33;11.98;;;6.57;;
69937;SDS011;57248;47.320;15.998;2023-06-04T05:15:07;10.98;;;6.50;;
69937;SDS011;57248;47.320;15.998;2023-06-04T05:17:39;13.03;;;7.03;;
69937;SDS011;57248;47.320;15.998;2023-06-04T05:20:13;12.05;;;6.93;;
69937;SDS011;57248;47.320;15.998;2023-06-04T05:22:46;14.20;;;7.05;;
69937;SDS011;57248;47.320;15.998;2023-06-04T05:25:21;18.38;;;7.30;;
69937;SDS011;57248;47.320;15.998;2023-06-04T05:27:55;15.52;;;7.35;;
69937;SDS011;57248;47.320;15.998;2023-06-04T05:30:28;13.77;;;7.60;;
69937;SDS011;57248;47.320;15.998;2023-06-04T05:32:54;9.65;;;6.57;;
69937;SDS011;57248;47.320;15.998;2023-06-04T05:35:27;12.35;;;7.13;;
69937;SDS011;57248;47.320;15.998;2023-06-04T05:38:01;13.87;;;6.80;;
69937;SDS011;57248;47.320;15.998;2023-06-04T05:40:33;11.73;;;6.72;;
69937;SDS011;57248;47.320;15.998;2023-06-04T05:43:05;12.93;;;6.93;;
69937;SDS011;57248;47.320;15.998;2023-06-04T05:45:38;14.82;;;7.22;;
69937;SDS011;57248;47.320;15.998;2023-06-04T05:48:10;11.48;;;6.95;;
69937;SDS011;57248;47.320;15.998;2023-06-04T05:50:43;12.73;;;7.07;;
69937;SDS011;57248;47.320;15.998;2023-06-04T05:53:16;10.80;;;6.93;;
69937;SDS011;57248;47.320;15.998;2023-06-04T05:55:51;12.90;;;6.88;;
69937;SDS011;57248;47.320;15.998;2023-06-04T05:58:24;10.50;;;6.82;;
69937;SDS011;57248;47.320;15.998;2023-06-04T06:00:56;11.85;;;6.72;;
69937;SDS011;57248;47.320;15.998;2023-06-04T06:03:28;11.43;;;6.70;;
69937;SDS011;57248;47.320;15.998;2023-06-04T06:06:00;12.45;;;6.82;;
69937;SDS011;57248;47.320;15.998;2023-06-04T06:08:26;9.85;;;6.95;;
69937;SDS011;57248;47.320;15.998;2023-06-04T06:10:58;11.10;;;6.95;;
69937;SDS011;57248;47.320;15.998;2023-06-04T06:13:30;11.98;;;7.05;;
69937;SDS011;57248;47.320;15.998;2023-06-04T06:16:03;9.83;;;6.97;;
69937;SDS011;57248;47.320;15.998;2023-06-04T06:18:36;9.05;;;6.32;;
69937;SDS011;57248;47.320;15.998;2023-06-04T06:21:08;11.63;;;6.78;;
69937;SDS011;57248;47.320;15.998;2023-06-04T06:23:41;9.75;;;6.47;;
69937;SDS011;57248;47.320;15.998;2023-06-04T06:26:13;10.98;;;6.55;;
69937;SDS011;57248;47.320;15.998;2023-06-04T06:28:50;11.33;;;6.67;;
69937;SDS011;57248;47.320;15.998;2023-06-04T06:31:22;10.32;;;6.50;;
69937;SDS011;57248;47.320;15.998;2023-06-04T06:33:55;11.20;;;6.60;;
69937;SDS011;57248;47.320;15.998;2023-06-04T06:36:27;9.93;;;6.28;;
69937;SDS011;57248;47.320;15.998;2023-06-04T06:39:00;9.40;;;6.13;;
69937;SDS011;57248;47.320;15.998;2023-06-04T06:41:32;10.63;;;6.17;;
69937;SDS011;57248;47.320;15.998;2023-06-04T06:44:06;8.35;;;6.03;;
69937;SDS011;57248;47.320;15.998;2023-06-04T06:46:38;10.77;;;6.32;;
69937;SDS011;57248;47.320;15.998;2023-06-04T06:49:10;9.80;;;6.18;;
69937;SDS011;57248;47.320;15.998;2023-06-04T06:51:42;9.95;;;6.53;;
69937;SDS011;57248;47.320;15.998;2023-06-04T06:54:14;11.00;;;6.60;;
69937;SDS011;57248;47.320;15.998;2023-06-04T06:56:48;10.57;;;6.65;;
69937;SDS011;57248;47.320;15.998;2023-06-04T06:59:22;11.63;;;6.85;;
69937;SDS011;57248;47.320;15.998;2023-06-04T07:01:54;10.48;;;6.25;;
69937;SDS011;57248;47.320;15.998;2023-06-04T07:04:26;9.98;;;6.20;;
69937;SDS011;57248;47.320;15.998;2023-06-04T07:06:58;9.97;;;6.23;;
69937;SDS011;57248;47.320;15.998;2023-06-04T07:09:31;10.40;;;6.82;;
69937;SDS011;57248;47.320;15.998;2023-06-04T07:12:04;12.00;;;6.47;;
69937;SDS011;57248;47.320;15.998;2023-06-04T07:14:37;12.77;;;6.65;;
69937;SDS011;57248;47.320;15.998;2023-06-04T07:17:09;10.55;;;6.25;;
69937;SDS011;57248;47.320;15.998;2023-06-04T07:19:50;11.40;;;7.07;;
69937;SDS011;57248;47.320;15.998;2023-06-04T07:22:21;11.32;;;7.28;;
69937;SDS011;57248;47.320;15.998;2023-06-04T07:24:54;6.57;;;5.13;;
69937;SDS011;57248;47.320;15.998;2023-06-04T07:27:26;10.45;;;7.32;;
69937;SDS011;57248;47.320;15.998;2023-06-04T07:30:00;10.32;;;7.15;;
69937;SDS011;57248;47.320;15.998;2023-06-04T07:32:31;11.43;;;6.30;;
69937;SDS011;57248;47.320;15.998;2023-06-04T07:35:04;8.13;;;6.38;;
69937;SDS011;57248;47.320;15.998;2023-06-04T07:37:36;9.30;;;6.80;;
69937;SDS011;57248;47.320;15.998;2023-06-04T07:40:02;10.40;;;6.33;;
69937;SDS011;57248;47.320;15.998;2023-06-04T07:42:35;8.73;;;5.75;;
69937;SDS011;57248;47.320;15.998;2023-06-04T07:45:07;9.13;;;5.85;;
69937;SDS011;57248;47.320;15.998;2023-06-04T07:47:42;10.05;;;6.35;;
69937;SDS011;57248;47.320;15.998;2023-06-04T07:50:15;8.95;;;5.90;;
69937;SDS011;57248;47.320;15.998;2023-06-04T07:52:47;9.30;;;5.40;;
69937;SDS011;57248;47.320;15.998;2023-06-04T07:55:19;6.85;;;5.45;;
69937;SDS011;57248;47.320;15.998;2023-06-04T07:57:51;7.15;;;4.97;;
69937;SDS011;57248;47.320;15.998;2023-06-04T08:00:23;7.75;;;4.70;;
69937;SDS011;57248;47.320;15.998;2023-06-04T08:02:55;7.68;;;4.40;;
69937;SDS011;57248;47.320;15.998;2023-06-04T08:05:28;6.60;;;3.90;;
69937;SDS011;57248;47.320;15.998;2023-06-04T08:08:00;7.03;;;4.45;;
69937;SDS011;57248;47.320;15.998;2023-06-04T08:10:32;7.85;;;4.85;;
69937;SDS011;57248;47.320;15.998;2023-06-04T08:13:04;7.53;;;4.82;;
69937;SDS011;57248;47.320;15.998;2023-06-04T08:15:36;7.78;;;5.20;;
69937;SDS011;57248;47.320;15.998;2023-06-04T08:18:15;7.83;;;5.77;;
69937;SDS011;57248;47.320;15.998;2023-06-04T08:20:47;7.93;;;5.63;;
69937;SDS011;57248;47.320;15.998;2023-06-04T08:23:26;8.40;;;5.22;;
69937;SDS011;57248;47.320;15.998;2023-06-04T08:25:58;7.82;;;5.00;;
69937;SDS011;57248;47.320;15.998;2023-06-04T08:28:30;6.18;;;4.70;;
69937;SDS011;57248;47.320;15.998;2023-06-04T08:31:02;7.73;;;4.87;;
69937;SDS011;57248;47.320;15.998;2023-06-04T08:33:35;6.68;;;4.70;;
69937;SDS011;57248;47.320;15.998;2023-06-04T08:36:06;6.35;;;4.38;;
69937;SDS011;57248;47.320;15.998;2023-06-04T08:38:32;6.70;;;4.33;;
69937;SDS011;57248;47.320;15.998;2023-06-04T08:41:09;7.22;;;4.30;;
69937;SDS011;57248;47.320;15.998;2023-06-04T08:43:44;9.00;;;4.28;;
69937;SDS011;57248;47.320;15.998;2023-06-04T08:46:17;6.70;;;4.65;;
69937;SDS011;57248;47.320;15.998;2023-06-04T08:48:49;7.27;;;3.90;;
69937;SDS011;57248;47.320;15.998;2023-06-04T08:51:22;8.65;;;4.35;;
69937;SDS011;57248;47.320;15.998;2023-06-04T08:53:55;7.40;;;4.13;;
69937;SDS011;57248;47.320;15.998;2023-06-04T08:56:29;6.80;;;4.22;;
69937;SDS011;57248;47.320;15.998;2023-06-04T08:59:04;7.20;;;4.03;;
69937;SDS011;57248;47.320;15.998;2023-06-04T09:01:38;7.60;;;4.10;;
69937;SDS011;57248;47.320;15.998;2023-06-04T09:04:10;6.15;;;3.97;;
69937;SDS011;57248;47.320;15.998;2023-06-04T09:06:43;6.25;;;4.25;;
69937;SDS011;57248;47.320;15.998;2023-06-04T09:09:17;7.60;;;4.63;;
69937;SDS011;57248;47.320;15.998;2023-06-04T09:11:51;11.75;;;4.95;;
69937;SDS011;57248;47.320;15.998;2023-06-04T09:14:25;7.57;;;4.97;;
69937;SDS011;57248;47.320;15.998;2023-06-04T09:16:57;5.75;;;4.28;;
69937;SDS011;57248;47.320;15.998;2023-06-04T09:19:37;8.88;;;5.18;;
69937;SDS011;57248;47.320;15.998;2023-06-04T09:22:11;9.30;;;4.72;;
69937;SDS011;57248;47.320;15.998;2023-06-04T09:24:44;7.65;;;4.72;;
69937;SDS011;57248;47.320;15.998;2023-06-04T09:27:21;10.53;;;5.20;;
69937;SDS011;57248;47.320;15.998;2023-06-04T09:29:56;7.97;;;4.70;;
69937;SDS011;57248;47.320;15.998;2023-06-04T09:32:30;7.63;;;4.93;;
69937;SDS011;57248;47.320;15.998;2023-06-04T09:35:12;8.98;;;5.20;;
69937;SDS011;57248;47.320;15.998;2023-06-04T09:37:53;8.32;;;4.60;;
69937;SDS011;57248;47.320;15.998;2023-06-04T09:40:35;7.80;;;4.90;;
69937;SDS011;57248;47.320;15.998;2023-06-04T09:43:08;6.78;;;5.05;;
69937;SDS011;57248;47.320;15.998;2023-06-04T09:45:42;9.10;;;5.75;;
69937;SDS011;57248;47.320;15.998;2023-06-04T09:48:19;8.48;;;5.57;;
69937;SDS011;57248;47.320;15.998;2023-06-04T09:50:53;9.15;;;5.80;;
69937;SDS011;57248;47.320;15.998;2023-06-04T09:53:25;7.87;;;5.30;;
69937;SDS011;57248;47.320;15.998;2023-06-04T09:56:00;8.30;;;5.55;;
69937;SDS011;57248;47.320;15.998;2023-06-04T09:58:34;9.32;;;6.03;;
69937;SDS011;57248;47.320;15.998;2023-06-04T10:01:07;7.90;;;5.40;;
69937;SDS011;57248;47.320;15.998;2023-06-04T10:03:39;9.48;;;6.28;;
69937;SDS011;57248;47.320;15.998;2023-06-04T10:06:18;7.10;;;6.40;;
69937;SDS011;57248;47.320;15.998;2023-06-04T10:08:52;8.98;;;7.80;;
69937;SDS011;57248;47.320;15.998;2023-06-04T10:11:31;8.35;;;7.55;;
69937;SDS011;57248;47.320;15.998;2023-06-04T10:14:30;9.48;;;7.30;;
69937;SDS011;57248;47.320;15.998;2023-06-04T10:17:08;8.07;;;6.93;;
69937;SDS011;57248;47.320;15.998;2023-06-04T10:19:43;9.60;;;6.27;;
69937;SDS011;57248;47.320;15.998;2023-06-04T10:22:23;7.93;;;6.28;;
69937;SDS011;57248;47.320;15.998;2023-06-04T10:24:57;9.55;;;6.10;;
69937;SDS011;57248;47.320;15.998;2023-06-04T10:27:33;8.25;;;5.93;;
69937;SDS011;57248;47.320;15.998;2023-06-04T10:30:07;9.02;;;6.32;;
69937;SDS011;57248;47.320;15.998;2023-06-04T10:32:43;7.10;;;6.00;;
69937;SDS011;57248;47.320;15.998;2023-06-04T10:35:16;7.85;;;5.57;;
69937;SDS011;57248;47.320;15.998;2023-06-04T10:37:48;7.07;;;5.57;;
69937;SDS011;57248;47.320;15.998;2023-06-04T10:40:30;9.23;;;5.80;;
69937;SDS011;57248;47.320;15.998;2023-06-04T10:43:10;7.90;;;5.60;;
69937;SDS011;57248;47.320;15.998;2023-06-04T10:45:44;9.07;;;5.73;;
69937;SDS011;57248;47.320;15.998;2023-06-04T10:48:16;10.45;;;5.60;;
69937;SDS011;57248;47.320;15.998;2023-06-04T10:50:51;10.45;;;5.90;;
69937;SDS011;57248;47.320;15.998;2023-06-04T10:53:24;10.15;;;5.40;;
69937;SDS011;57248;47.320;15.998;2023-06-04T10:56:07;8.45;;;7.03;;
69937;SDS011;57248;47.320;15.998;2023-06-04T10:58:39;10.13;;;7.53;;
69937;SDS011;57248;47.320;15.998;2023-06-04T11:01:22;9.40;;;7.40;;
69937;SDS011;57248;47.320;15.998;2023-06-04T11:03:54;8.77;;;6.53;;
69937;SDS011;57248;47.320;15.998;2023-06-04T11:06:27;9.02;;;6.40;;
69937;SDS011;57248;47.320;15.998;2023-06-04T11:09:03;10.85;;;6.90;;
69937;SDS011;57248;47.320;15.998;2023-06-04T11:11:37;7.93;;;5.80;;
69937;SDS011;57248;47.320;15.998;2023-06-04T11:14:10;9.15;;;6.57;;
69937;SDS011;57248;47.320;15.998;2023-06-04T11:16:44;8.70;;;7.30;;
69937;SDS011;57248;47.320;15.998;2023-06-04T11:19:17;8.65;;;7.60;;
69937;SDS011;57248;47.320;15.998;2023-06-04T11:21:56;11.27;;;8.10;;
69937;SDS011;57248;47.320;15.998;2023-06-04T11:24:28;7.93;;;7.00;;
69937;SDS011;57248;47.320;15.998;2023-06-04T11:27:03;8.45;;;7.13;;
69937;SDS011;57248;47.320;15.998;2023-06-04T11:29:28;9.40;;;8.50;;
69937;SDS011;57248;47.320;15.998;2023-06-04T11:32:00;8.95;;;8.05;;
69937;SDS011;57248;47.320;15.998;2023-06-04T11:34:32;10.20;;;7.53;;
69937;SDS011;57248;47.320;15.998;2023-06-04T11:37:08;8.47;;;6.60;;
69937;SDS011;57248;47.320;15.998;2023-06-04T11:39:40;8.60;;;7.00;;
69937;SDS011;57248;47.320;15.998;2023-06-04T11:42:09;8.88;;;7.80;;
69937;SDS011;57248;47.320;15.998;2023-06-04T11:44:42;10.65;;;7.68;;
69937;SDS011;57248;47.320;15.998;2023-06-04T11:47:19;9.23;;;8.30;;
69937;SDS011;57248;47.320;15.998;2023-06-04T11:49:55;9.37;;;8.47;;
69937;SDS011;57248;47.320;15.998;2023-06-04T11:52:27;9.65;;;8.00;;
69937;SDS011;57248;47.320;15.998;2023-06-04T11:54:59;8.20;;;7.40;;
69937;SDS011;57248;47.320;15.998;2023-06-04T11:57:33;9.80;;;8.90;;
69937;SDS011;57248;47.320;15.998;2023-06-04T12:00:06;11.25;;;10.25;;
69937;SDS011;57248;47.320;15.998;2023-06-04T12:02:54;12.30;;;9.80;;
69937;SDS011;57248;47.320;15.998;2023-06-04T12:05:30;9.02;;;8.05;;
69937;SDS011;57248;47.320;15.998;2023-06-04T12:13:14;8.48;;;6.03;;
69937;SDS011;57248;47.320;15.998;2023-06-04T12:15:53;7.37;;;6.00;;
69937;SDS011;57248;47.320;15.998;2023-06-04T12:18:28;7.47;;;6.50;;
69937;SDS011;57248;47.320;15.998;2023-06-04T12:26:40;7.90;;;5.50;;
69937;SDS011;57248;47.320;15.998;2023-06-04T12:29:17;8.40;;;5.40;;
69937;SDS011;57248;47.320;15.998;2023-06-04T12:31:51;7.90;;;5.53;;
69937;SDS011;57248;47.320;15.998;2023-06-04T12:34:34;7.05;;;5.50;;
69937;SDS011;57248;47.320;15.998;2023-06-04T12:37:01;8.80;;;5.45;;
69937;SDS011;57248;47.320;15.998;2023-06-04T12:39:35;8.00;;;5.70;;
69937;SDS011;57248;47.320;15.998;2023-06-04T12:42:08;8.37;;;6.23;;
69937;SDS011;57248;47.320;15.998;2023-06-04T12:44:41;7.20;;;6.47;;
69937;SDS011;57248;47.320;15.998;2023-06-04T12:47:12;7.70;;;6.25;;
69937;SDS011;57248;47.320;15.998;2023-06-04T12:49:44;8.18;;;6.10;;
69937;SDS011;57248;47.320;15.998;2023-06-04T12:52:10;9.83;;;7.10;;
69937;SDS011;57248;47.320;15.998;2023-06-04T12:54:42;9.18;;;7.68;;
69937;SDS011;57248;47.320;15.998;2023-06-04T12:57:14;8.38;;;7.13;;
69937;SDS011;57248;47.320;15.998;2023-06-04T12:59:46;8.18;;;7.28;;
69937;SDS011;57248;47.320;15.998;2023-06-04T13:02:18;9.73;;;7.33;;
69937;SDS011;57248;47.320;15.998;2023-06-04T13:04:50;10.43;;;7.53;;
69937;SDS011;57248;47.320;15.998;2023-06-04T13:07:25;11.90;;;7.30;;
69937;SDS011;57248;47.320;15.998;2023-06-04T13:09:57;13.27;;;7.40;;
69937;SDS011;57248;47.320;15.998;2023-06-04T13:12:29;8.30;;;7.00;;
69937;SDS011;57248;47.320;15.998;2023-06-04T13:15:01;8.07;;;6.67;;
69937;SDS011;57248;47.320;15.998;2023-06-04T13:17:28;9.32;;;6.68;;
69937;SDS011;57248;47.320;15.998;2023-06-04T13:20:07;10.13;;;6.63;;
69937;SDS011;57248;47.320;15.998;2023-06-04T13:22:39;9.02;;;6.18;;
69937;SDS011;57248;47.320;15.998;2023-06-04T13:25:11;10.68;;;6.22;;
69937;SDS011;57248;47.320;15.998;2023-06-04T13:27:45;10.93;;;6.07;;
69937;SDS011;57248;47.320;15.998;2023-06-04T13:30:16;8.85;;;5.80;;
69937;SDS011;57248;47.320;15.998;2023-06-04T13:32:48;8.80;;;6.53;;
69937;SDS011;57248;47.320;15.998;2023-06-04T13:35:20;9.38;;;6.18;;
69937;SDS011;57248;47.320;15.998;2023-06-04T13:37:54;10.05;;;6.32;;
69937;SDS011;57248;47.320;15.998;2023-06-04T13:40:26;8.20;;;5.93;;
69937;SDS011;57248;47.320;15.998;2023-06-04T13:43:00;10.23;;;7.85;;
69937;SDS011;57248;47.320;15.998;2023-06-04T13:45:31;9.38;;;5.75;;
69937;SDS011;57248;47.320;15.998;2023-06-04T13:48:03;8.45;;;6.10;;
69937;SDS011;57248;47.320;15.998;2023-06-04T13:50:40;7.53;;;5.40;;
69937;SDS011;57248;47.320;15.998;2023-06-04T13:53:14;9.07;;;5.70;;
69937;SDS011;57248;47.320;15.998;2023-06-04T13:55:45;8.50;;;6.35;;
69937;SDS011;57248;47.320;15.998;2023-06-04T13:58:19;8.05;;;5.38;;
69937;SDS011;57248;47.320;15.998;2023-06-04T14:00:51;7.78;;;5.53;;
69937;SDS011;57248;47.320;15.998;2023-06-04T14:03:24;8.35;;;5.35;;
69937;SDS011;57248;47.320;15.998;2023-06-04T14:05:55;7.60;;;5.10;;
69937;SDS011;57248;47.320;15.998;2023-06-04T14:08:27;11.65;;;7.13;;
69937;SDS011;57248;47.320;15.998;2023-06-04T14:10:54;7.95;;;5.43;;
69937;SDS011;57248;47.320;15.998;2023-06-04T14:13:27;6.97;;;4.70;;
69937;SDS011;57248;47.320;15.998;2023-06-04T14:15:59;8.63;;;4.30;;
69937;SDS011;57248;47.320;15.998;2023-06-04T14:18:31;6.78;;;4.20;;
69937;SDS011;57248;47.320;15.998;2023-06-04T14:21:17;10.07;;;4.65;;
69937;SDS011;57248;47.320;15.998;2023-06-04T14:23:49;7.28;;;3.60;;
69937;SDS011;57248;47.320;15.998;2023-06-04T14:26:21;7.13;;;3.87;;
69937;SDS011;57248;47.320;15.998;2023-06-04T14:28:47;8.38;;;3.63;;
69937;SDS011;57248;47.320;15.998;2023-06-04T14:31:19;7.68;;;3.55;;
69937;SDS011;57248;47.320;15.998;2023-06-04T14:33:45;6.60;;;3.20;;
69937;SDS011;57248;47.320;15.998;2023-06-04T14:36:17;5.75;;;3.55;;
69937;SDS011;57248;47.320;15.998;2023-06-04T14:38:50;7.00;;;3.25;;
69937;SDS011;57248;47.320;15.998;2023-06-04T14:41:15;7.10;;;3.07;;
69937;SDS011;57248;47.320;15.998;2023-06-04T14:43:47;7.20;;;3.13;;
69937;SDS011;57248;47.320;15.998;2023-06-04T14:46:19;5.13;;;2.63;;
69937;SDS011;57248;47.320;15.998;2023-06-04T14:48:51;5.28;;;2.90;;
69937;SDS011;57248;47.320;15.998;2023-06-04T14:51:24;5.38;;;2.63;;
69937;SDS011;57248;47.320;15.998;2023-06-04T14:53:57;8.05;;;2.85;;
69937;SDS011;57248;47.320;15.998;2023-06-04T14:56:29;9.55;;;4.03;;
69937;SDS011;57248;47.320;15.998;2023-06-04T14:59:01;6.80;;;3.77;;
69937;SDS011;57248;47.320;15.998;2023-06-04T15:01:37;9.90;;;3.72;;
69937;SDS011;57248;47.320;15.998;2023-06-04T15:04:09;9.10;;;4.80;;
69937;SDS011;57248;47.320;15.998;2023-06-04T15:06:41;12.02;;;4.50;;
69937;SDS011;57248;47.320;15.998;2023-06-04T15:09:13;9.75;;;5.15;;
69937;SDS011;57248;47.320;15.998;2023-06-04T15:11:46;7.97;;;3.80;;
69937;SDS011;57248;47.320;15.998;2023-06-04T15:14:19;9.73;;;3.75;;
69937;SDS011;57248;47.320;15.998;2023-06-04T15:16:51;7.00;;;3.22;;
69937;SDS011;57248;47.320;15.998;2023-06-04T15:19:23;9.88;;;3.40;;